createdAt,value
2022-10-03T00:01:44.254Z,12.80
2022-10-03T00:04:39.993Z,12.80
2022-10-03T00:07:23.440Z,12.80
2022-10-03T00:10:05.922Z,12.80
2022-10-03T00:12:47.263Z,12.70
2022-10-03T00:15:21.905Z,12.70
2022-10-03T00:18:02.200Z,12.70
2022-10-03T00:20:46.534Z,12.70
2022-10-03T00:23:22.502Z,12.70
2022-10-03T00:25:56.745Z,12.60
2022-10-03T00:28:46.918Z,12.60
2022-10-03T00:31:19.100Z,12.60
2022-10-03T00:34:01.367Z,12.60
2022-10-03T00:36:44.219Z,12.50
2022-10-03T00:39:39.149Z,12.50
2022-10-03T00:42:44.253Z,12.60
2022-10-03T00:46:01.383Z,12.50
2022-10-03T00:49:29.761Z,12.50
2022-10-03T00:52:12.888Z,12.50
2022-10-03T00:54:53.396Z,12.50
2022-10-03T00:57:34.283Z,12.50
2022-10-03T01:00:17.511Z,12.40
2022-10-03T01:03:06.577Z,12.50
2022-10-03T01:05:48.274Z,12.50
2022-10-03T01:08:44.294Z,12.40
2022-10-03T01:11:28.029Z,12.40
2022-10-03T01:14:07.446Z,12.30
2022-10-03T01:16:43.560Z,12.30
2022-10-03T01:19:32.931Z,12.30
2022-10-03T01:22:17.055Z,12.20
2022-10-03T01:24:54.637Z,12.20
2022-10-03T01:27:34.774Z,12.10
2022-10-03T01:30:23.842Z,12.00
2022-10-03T01:32:58.583Z,12.10
2022-10-03T01:35:36.353Z,12.00
2022-10-03T01:38:20.660Z,12.00
2022-10-03T01:41:00.346Z,12.00
2022-10-03T01:43:38.213Z,12.00
2022-10-03T01:46:18.216Z,12.00
2022-10-03T01:48:55.300Z,12.00
2022-10-03T01:51:29.730Z,12.00
2022-10-03T01:54:13.507Z,11.90
2022-10-03T01:56:47.990Z,11.90
2022-10-03T01:59:20.873Z,11.90
2022-10-03T02:01:55.219Z,11.90
2022-10-03T02:04:37.675Z,11.80
2022-10-03T02:07:13.109Z,11.80
2022-10-03T02:09:59.084Z,11.70
2022-10-03T02:12:34.963Z,11.70
2022-10-03T02:15:14.373Z,11.70
2022-10-03T02:17:56.052Z,11.70
2022-10-03T02:20:31.981Z,11.60
2022-10-03T02:23:00.868Z,11.50
2022-10-03T02:25:52.682Z,11.50
2022-10-03T02:28:44.916Z,11.50
2022-10-03T02:31:46.946Z,11.50
2022-10-03T02:34:30.107Z,11.40
2022-10-03T02:37:35.283Z,11.50
2022-10-03T02:40:50.931Z,11.50
2022-10-03T02:44:00.670Z,11.40
2022-10-03T02:47:26.971Z,11.40
2022-10-03T02:50:33.900Z,11.40
2022-10-03T02:53:35.771Z,11.30
2022-10-03T02:56:34.447Z,11.30
2022-10-03T02:59:33.969Z,11.20
2022-10-03T03:02:40.537Z,11.20
2022-10-03T03:05:48.884Z,11.20
2022-10-03T03:08:36.828Z,11.20
2022-10-03T03:11:27.593Z,11.10
2022-10-03T03:14:20.045Z,11.10
2022-10-03T03:17:01.864Z,11.00
2022-10-03T03:19:47.129Z,11.00
2022-10-03T03:22:32.271Z,11.00
2022-10-03T03:25:17.365Z,11.00
2022-10-03T03:27:58.260Z,11.10
2022-10-03T03:30:37.148Z,11.10
2022-10-03T03:33:12.334Z,11.10
2022-10-03T03:35:55.973Z,11.10
2022-10-03T03:38:32.942Z,11.10
2022-10-03T03:41:20.778Z,11.20
2022-10-03T03:44:09.223Z,11.20
2022-10-03T03:46:49.478Z,11.20
2022-10-03T03:49:35.177Z,11.20
2022-10-03T03:52:22.230Z,11.20
2022-10-03T03:55:15.196Z,11.20
2022-10-03T03:58:14.823Z,11.10
2022-10-03T04:00:56.803Z,11.10
2022-10-03T04:03:46.312Z,11.10
2022-10-03T04:06:36.291Z,11.10
2022-10-03T04:09:18.704Z,11.00
2022-10-03T04:12:00.125Z,11.00
2022-10-03T04:15:03.829Z,11.00
2022-10-03T04:18:03.167Z,11.00
2022-10-03T04:20:52.089Z,11.00
2022-10-03T04:23:35.393Z,11.00
2022-10-03T04:26:16.331Z,11.00
2022-10-03T04:29:08.028Z,10.90
2022-10-03T04:31:45.178Z,11.00
2022-10-03T04:34:31.059Z,11.00
2022-10-03T04:37:16.355Z,11.10
2022-10-03T04:39:53.832Z,11.10
2022-10-03T04:42:42.154Z,11.10
2022-10-03T04:45:28.765Z,11.10
2022-10-03T04:48:06.151Z,11.10
2022-10-03T04:50:41.928Z,11.10
2022-10-03T04:53:22.829Z,11.10
2022-10-03T04:55:56.069Z,11.10
2022-10-03T04:58:37.601Z,11.10
2022-10-03T05:01:16.437Z,11.20
2022-10-03T05:03:55.059Z,11.10
2022-10-03T05:06:31.518Z,11.10
2022-10-03T05:09:22.965Z,11.00
2022-10-03T05:12:02.266Z,10.90
2022-10-03T05:14:52.787Z,10.90
2022-10-03T05:17:26.070Z,10.80
2022-10-03T05:20:21.723Z,10.80
2022-10-03T05:23:00.395Z,10.80
2022-10-03T05:25:44.366Z,10.80
2022-10-03T05:28:23.266Z,10.80
2022-10-03T05:30:56.401Z,10.80
2022-10-03T05:33:32.543Z,10.70
2022-10-03T05:36:12.443Z,10.60
2022-10-03T05:39:03.451Z,10.60
2022-10-03T05:41:35.587Z,10.60
2022-10-03T05:44:11.393Z,10.70
2022-10-03T05:46:46.224Z,10.70
2022-10-03T05:49:42.732Z,10.80
2022-10-03T05:52:26.066Z,10.80
2022-10-03T05:55:19.186Z,10.70
2022-10-03T05:58:30.328Z,10.70
2022-10-03T06:01:22.781Z,10.70
2022-10-03T06:04:20.702Z,10.70
2022-10-03T06:07:05.897Z,10.80
2022-10-03T06:09:59.201Z,10.80
2022-10-03T06:12:34.774Z,10.80
2022-10-03T06:15:28.791Z,10.80
2022-10-03T06:18:10.909Z,10.80
2022-10-03T06:21:08.114Z,10.90
2022-10-03T06:24:12.286Z,10.80
2022-10-03T06:27:23.766Z,10.90
2022-10-03T06:30:13.583Z,10.90
2022-10-03T06:33:26.058Z,10.90
2022-10-03T06:36:20.088Z,10.90
2022-10-03T06:39:24.138Z,10.80
2022-10-03T06:42:34.348Z,10.80
2022-10-03T06:45:45.995Z,10.90
2022-10-03T06:48:41.866Z,10.90
2022-10-03T06:51:41.760Z,11.00
2022-10-03T06:54:44.081Z,11.10
2022-10-03T06:57:35.314Z,11.10
2022-10-03T07:00:19.080Z,11.00
2022-10-03T07:03:20.468Z,11.00
2022-10-03T07:06:19.025Z,11.10
2022-10-03T07:09:41.166Z,11.20
2022-10-03T07:12:43.799Z,11.10
2022-10-03T07:16:25.348Z,11.20
2022-10-03T07:19:30.868Z,11.30
2022-10-03T07:22:36.081Z,11.40
2022-10-03T07:25:41.068Z,11.50
2022-10-03T07:28:51.014Z,11.60
2022-10-03T07:31:30.518Z,11.70
2022-10-03T07:34:35.068Z,11.80
2022-10-03T07:37:43.097Z,11.80
2022-10-03T07:40:42.115Z,11.90
2022-10-03T07:43:56.046Z,12.00
2022-10-03T07:46:54.340Z,12.00
2022-10-03T07:49:56.608Z,12.20
2022-10-03T07:52:43.774Z,12.30
2022-10-03T07:55:41.761Z,12.40
2022-10-03T07:58:52.030Z,12.50
2022-10-03T08:01:47.321Z,12.60
2022-10-03T08:05:03.625Z,12.70
2022-10-03T08:08:04.493Z,12.70
2022-10-03T08:11:03.719Z,12.80
2022-10-03T08:13:43.529Z,12.70
2022-10-03T08:16:30.641Z,12.80
2022-10-03T08:19:12.940Z,12.90
2022-10-03T08:22:02.706Z,13.00
2022-10-03T08:25:10.645Z,13.00
2022-10-03T08:27:55.886Z,13.10
2022-10-03T08:30:26.399Z,13.00
2022-10-03T08:33:36.071Z,13.00
2022-10-03T08:36:40.311Z,13.20
2022-10-03T08:39:26.761Z,13.40
2022-10-03T08:42:41.100Z,13.50
2022-10-03T08:45:55.769Z,13.70
2022-10-03T08:48:48.600Z,13.80
2022-10-03T08:51:53.638Z,13.90
2022-10-03T08:54:47.258Z,14.00
2022-10-03T08:57:43.546Z,14.10
2022-10-03T09:00:18.895Z,14.10
2022-10-03T09:03:40.504Z,14.10
2022-10-03T09:06:52.812Z,14.10
2022-10-03T09:09:57.265Z,14.10
2022-10-03T09:12:57.163Z,14.20
2022-10-03T09:15:48.424Z,14.30
2022-10-03T09:18:41.472Z,14.40
2022-10-03T09:21:41.537Z,14.50
2022-10-03T09:24:51.375Z,14.50
2022-10-03T09:27:35.461Z,14.70
2022-10-03T09:30:17.671Z,14.80
2022-10-03T09:33:26.725Z,14.70
2022-10-03T09:36:23.617Z,14.70
2022-10-03T09:39:20.861Z,14.70
2022-10-03T09:42:33.868Z,14.80
2022-10-03T09:45:31.947Z,14.90
2022-10-03T09:48:33.666Z,15.00
2022-10-03T09:51:22.426Z,15.00
2022-10-03T09:54:16.700Z,15.10
2022-10-03T09:57:22.732Z,15.10
2022-10-03T10:00:03.794Z,14.90
2022-10-03T10:03:01.759Z,15.00
2022-10-03T10:06:07.258Z,15.10
2022-10-03T10:08:55.765Z,15.20
2022-10-03T10:11:37.902Z,15.20
2022-10-03T10:14:43.287Z,15.30
2022-10-03T10:18:14.711Z,15.30
2022-10-03T10:21:24.322Z,15.30
2022-10-03T10:24:02.013Z,15.30
2022-10-03T10:26:58.102Z,15.30
2022-10-03T10:29:50.998Z,15.30
2022-10-03T10:32:56.915Z,15.40
2022-10-03T10:35:59.787Z,15.40
2022-10-03T10:39:06.649Z,15.50
2022-10-03T10:42:16.801Z,15.70
2022-10-03T10:45:24.455Z,15.90
2022-10-03T10:48:43.639Z,16.20
2022-10-03T10:51:56.520Z,16.20
2022-10-03T10:55:04.429Z,16.30
2022-10-03T10:58:02.723Z,16.30
2022-10-03T11:00:55.956Z,16.40
2022-10-03T11:04:06.554Z,16.20
2022-10-03T11:07:14.477Z,16.10
2022-10-03T11:10:31.014Z,16.10
2022-10-03T11:13:43.515Z,16.00
2022-10-03T11:16:47.896Z,15.90
2022-10-03T11:20:10.606Z,15.90
2022-10-03T11:23:21.456Z,16.00
2022-10-03T11:26:41.708Z,16.10
2022-10-03T11:29:46.646Z,16.30
2022-10-03T11:32:50.353Z,16.40
2022-10-03T11:36:01.038Z,16.60
2022-10-03T11:38:32.741Z,16.70
2022-10-03T11:41:06.707Z,16.60
2022-10-03T11:44:05.048Z,16.70
2022-10-03T11:46:52.417Z,16.90
2022-10-03T11:49:41.787Z,16.90
2022-10-03T11:52:27.771Z,17.10
2022-10-03T11:55:15.806Z,17.20
2022-10-03T11:57:47.765Z,17.30
2022-10-03T12:00:19.906Z,17.20
2022-10-03T12:03:08.234Z,17.40
2022-10-03T12:05:48.347Z,17.50
2022-10-03T12:08:45.338Z,17.60
2022-10-03T12:11:20.831Z,17.70
2022-10-03T12:14:05.158Z,17.70
2022-10-03T12:16:58.514Z,17.70
2022-10-03T12:19:32.424Z,17.70
2022-10-03T12:22:14.096Z,17.50
2022-10-03T12:24:43.934Z,17.50
2022-10-03T12:27:20.819Z,17.40
2022-10-03T12:29:58.792Z,17.30
2022-10-03T12:32:50.531Z,17.30
2022-10-03T12:35:37.268Z,17.30
2022-10-03T12:38:19.699Z,17.40
2022-10-03T12:40:55.697Z,17.40
2022-10-03T12:43:39.480Z,17.30
2022-10-03T12:46:15.160Z,17.30
2022-10-03T12:48:48.469Z,17.40
2022-10-03T12:51:31.893Z,17.40
2022-10-03T12:54:08.392Z,17.50
2022-10-03T12:56:46.373Z,17.70
2022-10-03T12:59:23.752Z,17.60
2022-10-03T13:02:23.627Z,17.50
2022-10-03T13:05:08.786Z,17.40
2022-10-03T13:07:52.360Z,17.30
2022-10-03T13:10:31.281Z,17.20
2022-10-03T13:13:15.309Z,17.10
2022-10-03T13:15:53.043Z,17.00
2022-10-03T13:18:33.606Z,17.00
2022-10-03T13:21:26.817Z,17.10
2022-10-03T13:24:04.572Z,17.00
2022-10-03T13:26:47.615Z,17.20
2022-10-03T13:29:34.640Z,17.20
2022-10-03T13:32:18.143Z,17.20
2022-10-03T13:35:45.431Z,17.30
2022-10-03T13:38:55.251Z,17.30
2022-10-03T13:41:52.534Z,17.40
2022-10-03T13:44:23.765Z,17.50
2022-10-03T13:46:59.036Z,17.40
2022-10-03T13:49:34.322Z,17.40
2022-10-03T13:52:15.526Z,17.30
2022-10-03T13:55:06.600Z,17.30
2022-10-03T13:57:42.079Z,17.20
2022-10-03T14:00:12.349Z,17.20
2022-10-03T14:03:11.154Z,17.20
2022-10-03T14:06:01.407Z,17.10
2022-10-03T14:08:56.724Z,17.10
2022-10-03T14:11:29.072Z,17.10
2022-10-03T14:14:18.755Z,17.10
2022-10-03T14:16:56.193Z,17.10
2022-10-03T14:19:36.701Z,17.10
2022-10-03T14:22:22.677Z,17.20
2022-10-03T14:25:08.632Z,17.20
2022-10-03T14:27:51.025Z,17.30
2022-10-03T14:30:22.569Z,17.30
2022-10-03T14:33:16.981Z,17.30
2022-10-03T14:35:55.990Z,17.30
2022-10-03T14:38:54.678Z,17.40
2022-10-03T14:41:28.154Z,17.30
2022-10-03T14:44:00.583Z,17.30
2022-10-03T14:46:34.058Z,17.20
2022-10-03T14:49:05.500Z,17.20
2022-10-03T14:51:38.449Z,17.20
2022-10-03T14:54:17.322Z,17.30
2022-10-03T14:56:47.465Z,17.30
2022-10-03T14:59:21.444Z,17.30
2022-10-03T15:01:54.206Z,17.30
2022-10-03T15:04:29.929Z,17.40
2022-10-03T15:07:00.892Z,17.40
2022-10-03T15:09:42.680Z,17.40
2022-10-03T15:12:16.327Z,17.40
2022-10-03T15:14:48.423Z,17.30
2022-10-03T15:17:22.650Z,17.30
2022-10-03T15:19:54.943Z,17.30
2022-10-03T15:22:35.593Z,17.30
2022-10-03T15:25:12.046Z,17.30
2022-10-03T15:27:42.614Z,17.30
2022-10-03T15:30:21.607Z,17.30
2022-10-03T15:32:53.455Z,17.20
2022-10-03T15:35:27.331Z,17.20
2022-10-03T15:37:57.511Z,17.20
2022-10-03T15:40:32.455Z,17.20
2022-10-03T15:43:07.922Z,17.20
2022-10-03T15:45:38.294Z,17.30
2022-10-03T15:48:14.143Z,17.30
2022-10-03T15:50:43.687Z,17.30
2022-10-03T15:53:36.128Z,17.20
2022-10-03T15:56:15.206Z,17.30
2022-10-03T15:58:48.632Z,17.30
2022-10-03T16:01:21.980Z,17.30
2022-10-03T16:03:54.905Z,17.30
2022-10-03T16:06:26.525Z,17.40
2022-10-03T16:09:01.099Z,17.40
2022-10-03T16:11:33.776Z,17.40
2022-10-03T16:14:18.332Z,17.30
2022-10-03T16:16:51.965Z,17.30
2022-10-03T16:19:29.043Z,17.30
2022-10-03T16:22:12.304Z,17.20
2022-10-03T16:24:46.125Z,17.20
2022-10-03T16:27:19.159Z,17.10
2022-10-03T16:29:54.982Z,17.20
2022-10-03T16:32:26.695Z,17.30
2022-10-03T16:35:01.332Z,17.40
2022-10-03T16:37:31.056Z,17.50
2022-10-03T16:40:02.722Z,17.50
2022-10-03T16:42:40.671Z,17.60
2022-10-03T16:45:22.179Z,17.60
2022-10-03T16:48:12.243Z,17.50
2022-10-03T16:50:47.456Z,17.50
2022-10-03T16:53:16.141Z,17.40
2022-10-03T16:55:48.482Z,17.40
2022-10-03T16:58:22.264Z,17.40
2022-10-03T17:01:25.228Z,17.30
2022-10-03T17:03:52.194Z,17.00
2022-10-03T17:06:27.221Z,16.80
2022-10-03T17:08:59.085Z,16.60
2022-10-03T17:11:28.911Z,16.40
2022-10-03T17:14:00.776Z,16.20
2022-10-03T17:16:37.522Z,16.10
2022-10-03T17:19:20.342Z,16.00
2022-10-03T17:21:54.712Z,15.90
2022-10-03T17:24:34.276Z,15.80
2022-10-03T17:27:08.783Z,15.70
2022-10-03T17:29:42.479Z,15.60
2022-10-03T17:32:20.362Z,15.60
2022-10-03T17:34:55.452Z,15.60
2022-10-03T17:38:14.874Z,15.50
2022-10-03T17:41:02.321Z,15.50
2022-10-03T17:43:37.477Z,15.50
2022-10-03T17:46:13.323Z,15.40
2022-10-03T17:48:47.274Z,15.40
2022-10-03T17:51:29.638Z,15.40
2022-10-03T17:54:00.609Z,15.30
2022-10-03T17:56:32.747Z,15.30
2022-10-03T17:59:05.827Z,15.30
2022-10-03T18:01:40.088Z,15.30
2022-10-03T18:04:16.595Z,15.50
2022-10-03T18:06:48.395Z,15.60
2022-10-03T18:09:29.799Z,15.60
2022-10-03T18:12:10.924Z,15.50
2022-10-03T18:14:47.650Z,15.40
2022-10-03T18:17:20.481Z,15.30
2022-10-03T18:20:03.171Z,15.30
2022-10-03T18:22:40.575Z,15.20
2022-10-03T18:25:34.295Z,15.10
2022-10-03T18:28:13.488Z,15.10
2022-10-03T18:30:51.702Z,15.10
2022-10-03T18:33:24.480Z,15.00
2022-10-03T18:35:53.881Z,14.90
2022-10-03T18:38:24.651Z,14.90
2022-10-03T18:40:57.752Z,14.90
2022-10-03T18:43:32.797Z,14.80
2022-10-03T18:46:10.396Z,14.80
2022-10-03T18:49:03.087Z,14.70
2022-10-03T18:51:39.126Z,14.60
2022-10-03T18:54:21.299Z,14.60
2022-10-03T18:57:05.681Z,14.60
2022-10-03T18:59:45.038Z,14.50
2022-10-03T19:02:20.836Z,14.50
2022-10-03T19:04:55.380Z,14.50
2022-10-03T19:07:25.877Z,14.50
2022-10-03T19:10:22.232Z,14.50
2022-10-03T19:12:55.941Z,14.50
2022-10-03T19:15:38.832Z,14.50
2022-10-03T19:18:20.907Z,14.50
2022-10-03T19:20:52.208Z,14.40
2022-10-03T19:23:26.569Z,14.40
2022-10-03T19:25:57.631Z,14.40
2022-10-03T19:28:31.237Z,14.30
2022-10-03T19:31:04.273Z,14.40
2022-10-03T19:33:35.713Z,14.40
2022-10-03T19:36:06.867Z,14.40
2022-10-03T19:38:40.045Z,14.40
2022-10-03T19:41:18.875Z,14.30
2022-10-03T19:43:50.453Z,14.30
2022-10-03T19:46:33.915Z,14.30
2022-10-03T19:49:26.165Z,14.30
2022-10-03T19:52:11.609Z,14.30
2022-10-03T19:54:48.709Z,14.20
2022-10-03T19:57:20.128Z,14.20
2022-10-03T19:59:52.857Z,14.20
2022-10-03T20:02:25.704Z,14.20
2022-10-03T20:04:55.698Z,14.20
2022-10-03T20:07:37.766Z,14.20
2022-10-03T20:10:42.265Z,14.20
2022-10-03T20:13:12.351Z,14.20
2022-10-03T20:15:45.631Z,14.20
2022-10-03T20:18:22.078Z,14.40
2022-10-03T20:20:52.857Z,14.50
2022-10-03T20:23:23.720Z,14.50
2022-10-03T20:25:56.585Z,14.40
2022-10-03T20:28:32.855Z,14.20
2022-10-03T20:31:02.452Z,14.20
2022-10-03T20:33:33.662Z,14.10
2022-10-03T20:36:06.244Z,14.00
2022-10-03T20:38:50.737Z,13.90
2022-10-03T20:41:28.195Z,13.80
2022-10-03T20:44:03.105Z,13.70
2022-10-03T20:46:40.580Z,13.70
2022-10-03T20:49:15.853Z,13.60
2022-10-03T20:51:45.558Z,13.50
2022-10-03T20:54:22.514Z,13.50
2022-10-03T20:56:56.802Z,13.50
2022-10-03T20:59:30.305Z,13.40
2022-10-03T21:02:07.195Z,13.50
2022-10-03T21:04:43.790Z,13.40
2022-10-03T21:07:25.123Z,13.40
2022-10-03T21:10:01.201Z,13.40
2022-10-03T21:12:33.755Z,13.40
2022-10-03T21:15:05.737Z,13.40
2022-10-03T21:17:37.553Z,13.40
2022-10-03T21:20:08.714Z,13.40
2022-10-03T21:22:37.920Z,13.40
2022-10-03T21:25:18.223Z,13.40
2022-10-03T21:27:51.480Z,13.30
2022-10-03T21:30:21.682Z,13.30
2022-10-03T21:33:09.650Z,13.20
2022-10-03T21:35:41.446Z,13.20
2022-10-03T21:38:20.278Z,13.10
2022-10-03T21:41:14.106Z,13.10
2022-10-03T21:43:49.612Z,13.10
2022-10-03T21:46:27.151Z,13.00
2022-10-03T21:49:15.846Z,13.00
2022-10-03T21:52:07.828Z,12.90
2022-10-03T21:54:44.198Z,12.90
2022-10-03T21:57:19.757Z,12.80
2022-10-03T22:00:08.119Z,12.80
2022-10-03T22:02:45.624Z,12.80
2022-10-03T22:05:25.229Z,12.80
2022-10-03T22:07:53.341Z,12.80
2022-10-03T22:10:24.034Z,12.80
2022-10-03T22:12:54.093Z,12.80
2022-10-03T22:15:28.378Z,12.80
2022-10-03T22:18:01.407Z,12.80
2022-10-03T22:20:32.550Z,12.80
2022-10-03T22:23:25.259Z,12.70
2022-10-03T22:26:04.021Z,12.70
2022-10-03T22:28:42.136Z,12.70
2022-10-03T22:31:27.037Z,12.70
2022-10-03T22:34:11.800Z,12.70
2022-10-03T22:36:42.434Z,12.70
2022-10-03T22:39:13.436Z,12.70
2022-10-03T22:41:44.381Z,12.60
2022-10-03T22:44:15.599Z,12.60
2022-10-03T22:46:49.193Z,12.50
2022-10-03T22:49:21.072Z,12.50
2022-10-03T22:51:54.870Z,12.40
2022-10-03T22:54:24.289Z,12.40
2022-10-03T22:56:55.973Z,12.40
2022-10-03T22:59:27.054Z,12.40
2022-10-03T23:01:58.015Z,12.40
2022-10-03T23:04:33.734Z,12.30
2022-10-03T23:07:39.474Z,12.30
2022-10-03T23:10:21.620Z,12.30
2022-10-03T23:12:57.599Z,12.20
2022-10-03T23:15:27.151Z,12.20
2022-10-03T23:18:39.343Z,12.20
2022-10-03T23:21:09.480Z,12.20
2022-10-03T23:23:59.536Z,12.30
2022-10-03T23:26:54.488Z,12.30
2022-10-03T23:29:23.091Z,12.30
2022-10-03T23:31:56.579Z,12.30
2022-10-03T23:35:14.851Z,12.30
2022-10-03T23:37:45.355Z,12.30
2022-10-03T23:40:34.947Z,12.20
2022-10-03T23:43:20.434Z,12.10
2022-10-03T23:45:50.906Z,12.10
2022-10-03T23:48:22.818Z,12.10
2022-10-03T23:50:55.084Z,12.00
2022-10-03T23:53:30.995Z,12.10
2022-10-03T23:56:03.260Z,12.10
2022-10-03T23:58:33.497Z,12.10
